sensor_id;sensor_type;location;lat;lon;timestamp;temperature;humidity
6443;DHT22;3254;47.372;8.512;2023-08-08T00:02:14;11.50;1.00
6443;DHT22;3254;47.372;8.512;2023-08-08T00:04:39;11.40;1.00
6443;DHT22;3254;47.372;8.512;2023-08-08T00:07:05;11.50;1.00
6443;DHT22;3254;47.372;8.512;2023-08-08T00:09:31;11.50;1.00
6443;DHT22;3254;47.372;8.512;2023-08-08T00:11:57;11.50;1.00
6443;DHT22;3254;47.372;8.512;2023-08-08T00:14:24;11.40;1.00
6443;DHT22;3254;47.372;8.512;2023-08-08T00:16:49;11.40;1.00
6443;DHT22;3254;47.372;8.512;2023-08-08T00:19:16;11.40;1.00
6443;DHT22;3254;47.372;8.512;2023-08-08T00:21:42;11.40;1.00
6443;DHT22;3254;47.372;8.512;2023-08-08T00:24:07;11.30;1.00
6443;DHT22;3254;47.372;8.512;2023-08-08T00:26:33;11.40;1.00
6443;DHT22;3254;47.372;8.512;2023-08-08T00:28:58;11.40;1.00
6443;DHT22;3254;47.372;8.512;2023-08-08T00:31:24;11.40;1.00
6443;DHT22;3254;47.372;8.512;2023-08-08T00:33:49;11.40;1.00
6443;DHT22;3254;47.372;8.512;2023-08-08T00:36:16;11.40;1.00
6443;DHT22;3254;47.372;8.512;2023-08-08T00:38:42;11.40;1.00
6443;DHT22;3254;47.372;8.512;2023-08-08T00:41:07;11.40;1.00
6443;DHT22;3254;47.372;8.512;2023-08-08T00:43:33;11.30;1.00
6443;DHT22;3254;47.372;8.512;2023-08-08T00:45:58;11.40;1.00
6443;DHT22;3254;47.372;8.512;2023-08-08T00:48:24;11.20;1.00
6443;DHT22;3254;47.372;8.512;2023-08-08T00:50:50;11.20;1.00
6443;DHT22;3254;47.372;8.512;2023-08-08T00:53:18;11.00;1.00
6443;DHT22;3254;47.372;8.512;2023-08-08T00:55:45;10.90;1.00
6443;DHT22;3254;47.372;8.512;2023-08-08T00:58:11;10.90;1.00
6443;DHT22;3254;47.372;8.512;2023-08-08T01:00:37;10.90;1.00
6443;DHT22;3254;47.372;8.512;2023-08-08T01:03:04;10.90;1.00
6443;DHT22;3254;47.372;8.512;2023-08-08T01:05:37;11.00;1.00
6443;DHT22;3254;47.372;8.512;2023-08-08T01:08:08;11.00;1.00
6443;DHT22;3254;47.372;8.512;2023-08-08T01:10:38;11.00;1.00
6443;DHT22;3254;47.372;8.512;2023-08-08T01:13:07;11.00;1.00
6443;DHT22;3254;47.372;8.512;2023-08-08T01:15:34;11.00;1.00
6443;DHT22;3254;47.372;8.512;2023-08-08T01:18:05;11.10;1.00
6443;DHT22;3254;47.372;8.512;2023-08-08T01:20:32;11.00;1.00
6443;DHT22;3254;47.372;8.512;2023-08-08T01:23:12;10.90;1.00
6443;DHT22;3254;47.372;8.512;2023-08-08T01:25:40;10.90;1.00
6443;DHT22;3254;47.372;8.512;2023-08-08T01:28:07;10.80;1.00
6443;DHT22;3254;47.372;8.512;2023-08-08T01:30:33;10.70;1.00
6443;DHT22;3254;47.372;8.512;2023-08-08T01:33:01;10.50;1.00
6443;DHT22;3254;47.372;8.512;2023-08-08T01:35:30;10.40;1.00
6443;DHT22;3254;47.372;8.512;2023-08-08T01:38:17;10.40;1.40
6443;DHT22;3254;47.372;8.512;2023-08-08T01:40:47;10.20;6.90
6443;DHT22;3254;47.372;8.512;2023-08-08T01:43:15;10.10;12.10
6443;DHT22;3254;47.372;8.512;2023-08-08T01:45:41;10.10;18.70
6443;DHT22;3254;47.372;8.512;2023-08-08T01:48:08;10.20;21.90
6443;DHT22;3254;47.372;8.512;2023-08-08T01:50:36;10.30;21.70
6443;DHT22;3254;47.372;8.512;2023-08-08T01:53:03;10.20;21.30
6443;DHT22;3254;47.372;8.512;2023-08-08T01:55:30;10.20;20.80
6443;DHT22;3254;47.372;8.512;2023-08-08T01:57:55;10.10;21.70
6443;DHT22;3254;47.372;8.512;2023-08-08T02:00:21;10.10;22.10
6443;DHT22;3254;47.372;8.512;2023-08-08T02:02:47;9.90;24.40
6443;DHT22;3254;47.372;8.512;2023-08-08T02:05:14;9.90;28.10
6443;DHT22;3254;47.372;8.512;2023-08-08T02:07:40;9.80;31.70
6443;DHT22;3254;47.372;8.512;2023-08-08T02:10:07;9.80;34.20
6443;DHT22;3254;47.372;8.512;2023-08-08T02:12:34;9.80;35.70
6443;DHT22;3254;47.372;8.512;2023-08-08T02:14:59;9.70;33.60
6443;DHT22;3254;47.372;8.512;2023-08-08T02:17:27;9.60;37.80
6443;DHT22;3254;47.372;8.512;2023-08-08T02:19:52;9.50;38.80
6443;DHT22;3254;47.372;8.512;2023-08-08T02:22:19;9.40;46.10
6443;DHT22;3254;47.372;8.512;2023-08-08T02:24:46;9.50;54.10
6443;DHT22;3254;47.372;8.512;2023-08-08T02:27:13;9.50;54.20
6443;DHT22;3254;47.372;8.512;2023-08-08T02:29:39;9.50;55.90
6443;DHT22;3254;47.372;8.512;2023-08-08T02:32:06;9.50;56.30
6443;DHT22;3254;47.372;8.512;2023-08-08T02:34:32;9.50;55.20
6443;DHT22;3254;47.372;8.512;2023-08-08T02:36:57;9.50;55.30
6443;DHT22;3254;47.372;8.512;2023-08-08T02:39:24;9.60;51.80
6443;DHT22;3254;47.372;8.512;2023-08-08T02:41:50;9.60;48.40
6443;DHT22;3254;47.372;8.512;2023-08-08T02:44:17;9.60;46.30
6443;DHT22;3254;47.372;8.512;2023-08-08T02:46:45;9.60;49.60
6443;DHT22;3254;47.372;8.512;2023-08-08T02:49:11;9.50;49.90
6443;DHT22;3254;47.372;8.512;2023-08-08T02:51:37;9.50;53.60
6443;DHT22;3254;47.372;8.512;2023-08-08T02:54:03;9.50;59.20
6443;DHT22;3254;47.372;8.512;2023-08-08T02:56:28;9.40;59.70
6443;DHT22;3254;47.372;8.512;2023-08-08T02:58:54;9.50;61.90
6443;DHT22;3254;47.372;8.512;2023-08-08T03:01:22;9.50;62.80
6443;DHT22;3254;47.372;8.512;2023-08-08T03:03:48;9.50;63.60
6443;DHT22;3254;47.372;8.512;2023-08-08T03:06:14;9.40;66.70
6443;DHT22;3254;47.372;8.512;2023-08-08T03:08:40;9.40;66.80
6443;DHT22;3254;47.372;8.512;2023-08-08T03:11:06;9.30;68.30
6443;DHT22;3254;47.372;8.512;2023-08-08T03:13:32;9.30;70.00
6443;DHT22;3254;47.372;8.512;2023-08-08T03:15:58;9.20;70.70
6443;DHT22;3254;47.372;8.512;2023-08-08T03:18:24;9.20;74.40
6443;DHT22;3254;47.372;8.512;2023-08-08T03:20:52;9.00;70.10
6443;DHT22;3254;47.372;8.512;2023-08-08T03:23:18;8.90;76.40
6443;DHT22;3254;47.372;8.512;2023-08-08T03:25:44;8.90;82.40
6443;DHT22;3254;47.372;8.512;2023-08-08T03:28:09;8.90;88.00
6443;DHT22;3254;47.372;8.512;2023-08-08T03:30:38;8.90;90.50
6443;DHT22;3254;47.372;8.512;2023-08-08T03:33:05;8.70;90.80
6443;DHT22;3254;47.372;8.512;2023-08-08T03:35:32;8.80;94.70
6443;DHT22;3254;47.372;8.512;2023-08-08T03:37:57;8.70;95.30
6443;DHT22;3254;47.372;8.512;2023-08-08T03:40:23;8.70;96.40
6443;DHT22;3254;47.372;8.512;2023-08-08T03:42:48;8.70;97.70
6443;DHT22;3254;47.372;8.512;2023-08-08T03:45:14;8.70;98.70
6443;DHT22;3254;47.372;8.512;2023-08-08T03:47:40;8.70;97.90
6443;DHT22;3254;47.372;8.512;2023-08-08T03:50:07;8.60;98.50
6443;DHT22;3254;47.372;8.512;2023-08-08T03:52:37;8.60;99.30
6443;DHT22;3254;47.372;8.512;2023-08-08T03:55:04;8.70;99.90
6443;DHT22;3254;47.372;8.512;2023-08-08T03:57:30;8.70;98.80
6443;DHT22;3254;47.372;8.512;2023-08-08T03:59:56;8.60;99.30
6443;DHT22;3254;47.372;8.512;2023-08-08T04:02:21;8.60;98.50
6443;DHT22;3254;47.372;8.512;2023-08-08T04:04:47;8.60;99.50
6443;DHT22;3254;47.372;8.512;2023-08-08T04:07:13;8.60;98.40
6443;DHT22;3254;47.372;8.512;2023-08-08T04:09:39;8.60;99.90
6443;DHT22;3254;47.372;8.512;2023-08-08T04:12:06;8.60;99.90
6443;DHT22;3254;47.372;8.512;2023-08-08T04:14:32;8.60;99.90
6443;DHT22;3254;47.372;8.512;2023-08-08T04:16:58;8.70;99.90
6443;DHT22;3254;47.372;8.512;2023-08-08T04:19:25;8.80;99.90
6443;DHT22;3254;47.372;8.512;2023-08-08T04:21:50;8.80;99.90
6443;DHT22;3254;47.372;8.512;2023-08-08T04:24:17;8.80;98.50
6443;DHT22;3254;47.372;8.512;2023-08-08T04:26:43;8.80;97.20
6443;DHT22;3254;47.372;8.512;2023-08-08T04:29:11;8.80;96.80
6443;DHT22;3254;47.372;8.512;2023-08-08T04:31:37;8.80;95.30
6443;DHT22;3254;47.372;8.512;2023-08-08T04:34:04;8.80;95.40
6443;DHT22;3254;47.372;8.512;2023-08-08T04:36:30;8.90;94.20
6443;DHT22;3254;47.372;8.512;2023-08-08T04:38:56;8.90;94.00
6443;DHT22;3254;47.372;8.512;2023-08-08T04:41:21;9.00;92.20
6443;DHT22;3254;47.372;8.512;2023-08-08T04:43:47;9.00;92.20
6443;DHT22;3254;47.372;8.512;2023-08-08T04:46:12;9.10;92.70
6443;DHT22;3254;47.372;8.512;2023-08-08T04:48:38;9.10;90.90
6443;DHT22;3254;47.372;8.512;2023-08-08T04:51:06;9.10;91.80
6443;DHT22;3254;47.372;8.512;2023-08-08T04:53:32;9.20;92.70
6443;DHT22;3254;47.372;8.512;2023-08-08T04:55:57;9.30;90.60
6443;DHT22;3254;47.372;8.512;2023-08-08T04:58:23;9.30;90.80
6443;DHT22;3254;47.372;8.512;2023-08-08T05:00:50;9.40;92.80
6443;DHT22;3254;47.372;8.512;2023-08-08T05:03:16;9.50;93.40
6443;DHT22;3254;47.372;8.512;2023-08-08T05:05:42;9.60;93.30
6443;DHT22;3254;47.372;8.512;2023-08-08T05:08:11;9.70;93.40
6443;DHT22;3254;47.372;8.512;2023-08-08T05:10:38;9.90;88.40
6443;DHT22;3254;47.372;8.512;2023-08-08T05:13:04;9.90;82.40
6443;DHT22;3254;47.372;8.512;2023-08-08T05:15:29;10.00;71.20
6443;DHT22;3254;47.372;8.512;2023-08-08T05:17:55;10.00;69.60
6443;DHT22;3254;47.372;8.512;2023-08-08T05:20:25;10.00;66.60
6443;DHT22;3254;47.372;8.512;2023-08-08T05:22:50;10.20;64.10
6443;DHT22;3254;47.372;8.512;2023-08-08T05:25:17;10.30;57.60
6443;DHT22;3254;47.372;8.512;2023-08-08T05:27:43;10.40;52.90
6443;DHT22;3254;47.372;8.512;2023-08-08T05:30:11;10.50;50.50
6443;DHT22;3254;47.372;8.512;2023-08-08T05:32:37;10.70;48.00
6443;DHT22;3254;47.372;8.512;2023-08-08T05:35:03;10.80;46.70
6443;DHT22;3254;47.372;8.512;2023-08-08T05:37:29;11.00;41.60
6443;DHT22;3254;47.372;8.512;2023-08-08T05:39:55;11.20;31.40
6443;DHT22;3254;47.372;8.512;2023-08-08T05:42:21;11.50;31.40
6443;DHT22;3254;47.372;8.512;2023-08-08T05:44:46;11.60;22.40
6443;DHT22;3254;47.372;8.512;2023-08-08T05:47:12;11.80;20.80
6443;DHT22;3254;47.372;8.512;2023-08-08T05:49:38;12.00;14.00
6443;DHT22;3254;47.372;8.512;2023-08-08T05:52:04;12.10;9.20
6443;DHT22;3254;47.372;8.512;2023-08-08T05:54:31;12.30;5.10
6443;DHT22;3254;47.372;8.512;2023-08-08T05:56:56;12.40;1.00
6443;DHT22;3254;47.372;8.512;2023-08-08T05:59:22;12.60;1.00
6443;DHT22;3254;47.372;8.512;2023-08-08T06:01:47;12.80;1.00
6443;DHT22;3254;47.372;8.512;2023-08-08T06:04:16;12.90;1.00
6443;DHT22;3254;47.372;8.512;2023-08-08T06:06:42;12.90;1.00
6443;DHT22;3254;47.372;8.512;2023-08-08T06:09:07;13.00;1.00
6443;DHT22;3254;47.372;8.512;2023-08-08T06:11:34;13.10;1.00
6443;DHT22;3254;47.372;8.512;2023-08-08T06:14:01;13.20;1.00
6443;DHT22;3254;47.372;8.512;2023-08-08T06:16:26;13.40;1.00
6443;DHT22;3254;47.372;8.512;2023-08-08T06:18:52;13.70;1.00
6443;DHT22;3254;47.372;8.512;2023-08-08T06:21:18;14.10;1.00
6443;DHT22;3254;47.372;8.512;2023-08-08T06:23:43;14.30;1.00
6443;DHT22;3254;47.372;8.512;2023-08-08T06:26:09;14.50;1.00
6443;DHT22;3254;47.372;8.512;2023-08-08T06:28:36;14.70;1.00
6443;DHT22;3254;47.372;8.512;2023-08-08T06:31:03;14.90;1.00
6443;DHT22;3254;47.372;8.512;2023-08-08T06:33:29;15.20;1.00
6443;DHT22;3254;47.372;8.512;2023-08-08T06:35:56;15.00;1.00
6443;DHT22;3254;47.372;8.512;2023-08-08T06:38:24;15.10;1.00
6443;DHT22;3254;47.372;8.512;2023-08-08T06:40:50;15.20;1.00
6443;DHT22;3254;47.372;8.512;2023-08-08T06:43:16;15.40;1.00
6443;DHT22;3254;47.372;8.512;2023-08-08T06:45:42;15.50;1.00
6443;DHT22;3254;47.372;8.512;2023-08-08T06:48:08;15.60;1.00
6443;DHT22;3254;47.372;8.512;2023-08-08T06:50:34;15.80;1.00
6443;DHT22;3254;47.372;8.512;2023-08-08T06:53:00;15.90;1.00
6443;DHT22;3254;47.372;8.512;2023-08-08T06:55:25;16.00;1.00
6443;DHT22;3254;47.372;8.512;2023-08-08T06:57:51;16.30;1.00
6443;DHT22;3254;47.372;8.512;2023-08-08T07:00:17;16.20;1.00
6443;DHT22;3254;47.372;8.512;2023-08-08T07:02:42;16.40;1.00
6443;DHT22;3254;47.372;8.512;2023-08-08T07:05:09;16.70;1.00
6443;DHT22;3254;47.372;8.512;2023-08-08T07:07:36;16.80;1.00
6443;DHT22;3254;47.372;8.512;2023-08-08T07:10:03;17.10;1.00
6443;DHT22;3254;47.372;8.512;2023-08-08T07:12:29;17.10;1.00
6443;DHT22;3254;47.372;8.512;2023-08-08T07:14:54;17.30;1.00
6443;DHT22;3254;47.372;8.512;2023-08-08T07:17:20;17.60;1.00
6443;DHT22;3254;47.372;8.512;2023-08-08T07:19:45;17.40;1.00
6443;DHT22;3254;47.372;8.512;2023-08-08T07:22:11;17.20;1.00
6443;DHT22;3254;47.372;8.512;2023-08-08T07:24:37;17.40;1.00
6443;DHT22;3254;47.372;8.512;2023-08-08T07:27:05;17.70;1.00
6443;DHT22;3254;47.372;8.512;2023-08-08T07:29:31;18.00;1.00
6443;DHT22;3254;47.372;8.512;2023-08-08T07:31:57;18.10;1.00
6443;DHT22;3254;47.372;8.512;2023-08-08T07:34:23;18.00;1.00
6443;DHT22;3254;47.372;8.512;2023-08-08T07:36:49;18.20;1.00
6443;DHT22;3254;47.372;8.512;2023-08-08T07:39:14;18.70;1.00
6443;DHT22;3254;47.372;8.512;2023-08-08T07:41:40;18.90;1.00
6443;DHT22;3254;47.372;8.512;2023-08-08T07:44:06;19.00;1.00
6443;DHT22;3254;47.372;8.512;2023-08-08T07:46:32;19.10;1.00
6443;DHT22;3254;47.372;8.512;2023-08-08T07:48:58;19.90;1.00
6443;DHT22;3254;47.372;8.512;2023-08-08T07:51:27;20.30;1.00
6443;DHT22;3254;47.372;8.512;2023-08-08T07:53:54;20.60;1.00
6443;DHT22;3254;47.372;8.512;2023-08-08T07:56:20;20.90;1.00
6443;DHT22;3254;47.372;8.512;2023-08-08T07:58:48;20.90;1.00
6443;DHT22;3254;47.372;8.512;2023-08-08T08:01:13;21.10;1.00
6443;DHT22;3254;47.372;8.512;2023-08-08T08:03:40;20.80;1.00
6443;DHT22;3254;47.372;8.512;2023-08-08T08:06:07;21.10;1.00
6443;DHT22;3254;47.372;8.512;2023-08-08T08:08:32;21.10;1.00
6443;DHT22;3254;47.372;8.512;2023-08-08T08:11:00;21.10;1.00
6443;DHT22;3254;47.372;8.512;2023-08-08T08:13:27;21.30;1.00
6443;DHT22;3254;47.372;8.512;2023-08-08T08:15:53;21.00;1.00
6443;DHT22;3254;47.372;8.512;2023-08-08T08:18:19;21.30;1.00
6443;DHT22;3254;47.372;8.512;2023-08-08T08:20:46;21.60;1.00
6443;DHT22;3254;47.372;8.512;2023-08-08T08:23:12;22.00;1.00
6443;DHT22;3254;47.372;8.512;2023-08-08T08:25:37;21.70;1.00
6443;DHT22;3254;47.372;8.512;2023-08-08T08:28:03;21.70;1.00
6443;DHT22;3254;47.372;8.512;2023-08-08T08:30:29;22.10;1.00
6443;DHT22;3254;47.372;8.512;2023-08-08T08:32:55;22.30;1.00
6443;DHT22;3254;47.372;8.512;2023-08-08T08:35:22;22.80;1.00
6443;DHT22;3254;47.372;8.512;2023-08-08T08:37:48;23.20;1.00
6443;DHT22;3254;47.372;8.512;2023-08-08T08:40:17;24.00;1.00
6443;DHT22;3254;47.372;8.512;2023-08-08T08:42:43;25.10;1.00
6443;DHT22;3254;47.372;8.512;2023-08-08T08:45:11;25.90;1.00
6443;DHT22;3254;47.372;8.512;2023-08-08T08:47:41;26.50;1.00
6443;DHT22;3254;47.372;8.512;2023-08-08T08:50:10;27.10;1.00
6443;DHT22;3254;47.372;8.512;2023-08-08T08:52:36;27.50;1.00
6443;DHT22;3254;47.372;8.512;2023-08-08T08:55:02;28.40;1.00
6443;DHT22;3254;47.372;8.512;2023-08-08T08:57:30;28.60;1.00
6443;DHT22;3254;47.372;8.512;2023-08-08T08:59:55;27.70;1.00
6443;DHT22;3254;47.372;8.512;2023-08-08T09:02:21;27.20;1.00
6443;DHT22;3254;47.372;8.512;2023-08-08T09:04:50;27.30;1.00
6443;DHT22;3254;47.372;8.512;2023-08-08T09:07:19;27.60;1.00
6443;DHT22;3254;47.372;8.512;2023-08-08T09:09:46;28.20;1.00
6443;DHT22;3254;47.372;8.512;2023-08-08T09:12:11;27.70;1.00
6443;DHT22;3254;47.372;8.512;2023-08-08T09:14:41;28.20;1.00
6443;DHT22;3254;47.372;8.512;2023-08-08T09:17:14;28.20;1.00
6443;DHT22;3254;47.372;8.512;2023-08-08T09:19:46;29.00;1.00
6443;DHT22;3254;47.372;8.512;2023-08-08T09:22:13;28.60;1.00
6443;DHT22;3254;47.372;8.512;2023-08-08T09:24:42;28.40;1.00
6443;DHT22;3254;47.372;8.512;2023-08-08T09:27:08;27.40;1.00
6443;DHT22;3254;47.372;8.512;2023-08-08T09:29:35;27.60;1.00
6443;DHT22;3254;47.372;8.512;2023-08-08T09:32:07;27.80;1.00
6443;DHT22;3254;47.372;8.512;2023-08-08T09:34:34;28.10;1.00
6443;DHT22;3254;47.372;8.512;2023-08-08T09:37:01;27.20;1.00
6443;DHT22;3254;47.372;8.512;2023-08-08T09:39:29;26.70;1.00
6443;DHT22;3254;47.372;8.512;2023-08-08T09:41:58;27.40;1.00
6443;DHT22;3254;47.372;8.512;2023-08-08T09:44:24;27.30;1.00
6443;DHT22;3254;47.372;8.512;2023-08-08T09:46:51;26.20;1.00
6443;DHT22;3254;47.372;8.512;2023-08-08T09:49:19;26.30;1.00
6443;DHT22;3254;47.372;8.512;2023-08-08T09:51:47;27.10;1.00
6443;DHT22;3254;47.372;8.512;2023-08-08T09:54:13;27.70;1.00
6443;DHT22;3254;47.372;8.512;2023-08-08T09:56:41;27.80;1.00
6443;DHT22;3254;47.372;8.512;2023-08-08T09:59:07;27.50;1.00
6443;DHT22;3254;47.372;8.512;2023-08-08T10:01:34;26.90;1.00
6443;DHT22;3254;47.372;8.512;2023-08-08T10:04:00;26.60;1.00
6443;DHT22;3254;47.372;8.512;2023-08-08T10:06:28;26.50;1.00
6443;DHT22;3254;47.372;8.512;2023-08-08T10:08:55;26.50;1.00
6443;DHT22;3254;47.372;8.512;2023-08-08T10:11:22;25.60;1.00
6443;DHT22;3254;47.372;8.512;2023-08-08T10:13:52;25.70;1.00
6443;DHT22;3254;47.372;8.512;2023-08-08T10:16:18;25.00;1.00
6443;DHT22;3254;47.372;8.512;2023-08-08T10:19:01;24.90;1.00
6443;DHT22;3254;47.372;8.512;2023-08-08T10:21:27;25.30;1.00
6443;DHT22;3254;47.372;8.512;2023-08-08T10:24:08;24.80;1.00
6443;DHT22;3254;47.372;8.512;2023-08-08T10:26:56;25.00;1.00
6443;DHT22;3254;47.372;8.512;2023-08-08T10:29:26;25.80;1.00
6443;DHT22;3254;47.372;8.512;2023-08-08T10:31:53;27.00;1.00
6443;DHT22;3254;47.372;8.512;2023-08-08T10:34:20;27.00;1.00
6443;DHT22;3254;47.372;8.512;2023-08-08T10:36:52;26.90;1.00
6443;DHT22;3254;47.372;8.512;2023-08-08T10:39:20;27.10;1.00
6443;DHT22;3254;47.372;8.512;2023-08-08T10:41:50;27.20;1.00
6443;DHT22;3254;47.372;8.512;2023-08-08T10:44:23;26.50;1.00
6443;DHT22;3254;47.372;8.512;2023-08-08T10:46:54;27.80;1.00
6443;DHT22;3254;47.372;8.512;2023-08-08T10:49:21;28.20;1.00
6443;DHT22;3254;47.372;8.512;2023-08-08T10:51:48;28.30;1.00
6443;DHT22;3254;47.372;8.512;2023-08-08T10:54:23;28.10;1.00
6443;DHT22;3254;47.372;8.512;2023-08-08T10:56:54;28.10;1.00
6443;DHT22;3254;47.372;8.512;2023-08-08T10:59:40;27.80;1.00
6443;DHT22;3254;47.372;8.512;2023-08-08T11:02:06;28.10;1.00
6443;DHT22;3254;47.372;8.512;2023-08-08T11:04:33;28.80;1.00
6443;DHT22;3254;47.372;8.512;2023-08-08T11:07:00;30.00;1.00
6443;DHT22;3254;47.372;8.512;2023-08-08T11:09:26;30.20;1.00
6443;DHT22;3254;47.372;8.512;2023-08-08T11:11:52;30.00;1.00
6443;DHT22;3254;47.372;8.512;2023-08-08T11:14:19;30.80;1.00
6443;DHT22;3254;47.372;8.512;2023-08-08T11:16:49;30.50;1.00
6443;DHT22;3254;47.372;8.512;2023-08-08T11:19:15;29.20;1.00
6443;DHT22;3254;47.372;8.512;2023-08-08T11:21:44;28.70;1.00
6443;DHT22;3254;47.372;8.512;2023-08-08T11:24:10;28.00;1.00
6443;DHT22;3254;47.372;8.512;2023-08-08T11:26:37;27.80;1.00
6443;DHT22;3254;47.372;8.512;2023-08-08T11:29:04;27.30;1.00
6443;DHT22;3254;47.372;8.512;2023-08-08T11:31:35;26.30;1.00
6443;DHT22;3254;47.372;8.512;2023-08-08T11:34:01;26.10;1.00
6443;DHT22;3254;47.372;8.512;2023-08-08T11:36:30;26.70;1.00
6443;DHT22;3254;47.372;8.512;2023-08-08T11:38:59;26.90;1.00
6443;DHT22;3254;47.372;8.512;2023-08-08T11:41:25;26.60;1.00
6443;DHT22;3254;47.372;8.512;2023-08-08T11:43:52;27.90;1.00
6443;DHT22;3254;47.372;8.512;2023-08-08T11:46:19;28.00;1.00
6443;DHT22;3254;47.372;8.512;2023-08-08T11:48:48;27.90;1.00
6443;DHT22;3254;47.372;8.512;2023-08-08T11:51:14;28.90;1.00
6443;DHT22;3254;47.372;8.512;2023-08-08T11:53:51;29.30;1.00
6443;DHT22;3254;47.372;8.512;2023-08-08T11:56:19;28.00;1.00
6443;DHT22;3254;47.372;8.512;2023-08-08T11:58:50;27.40;1.00
6443;DHT22;3254;47.372;8.512;2023-08-08T12:01:19;27.90;1.00
6443;DHT22;3254;47.372;8.512;2023-08-08T12:03:46;28.20;1.00
6443;DHT22;3254;47.372;8.512;2023-08-08T12:06:16;29.30;1.00
6443;DHT22;3254;47.372;8.512;2023-08-08T12:08:44;30.90;1.00
6443;DHT22;3254;47.372;8.512;2023-08-08T12:11:11;30.30;1.00
6443;DHT22;3254;47.372;8.512;2023-08-08T12:13:40;29.30;1.00
6443;DHT22;3254;47.372;8.512;2023-08-08T12:16:08;29.30;1.00
6443;DHT22;3254;47.372;8.512;2023-08-08T12:18:35;28.60;1.00
6443;DHT22;3254;47.372;8.512;2023-08-08T12:21:00;28.50;1.00
6443;DHT22;3254;47.372;8.512;2023-08-08T12:23:27;27.90;1.00
6443;DHT22;3254;47.372;8.512;2023-08-08T12:25:53;28.40;1.00
6443;DHT22;3254;47.372;8.512;2023-08-08T12:28:23;28.00;1.00
6443;DHT22;3254;47.372;8.512;2023-08-08T12:30:50;27.80;1.00
6443;DHT22;3254;47.372;8.512;2023-08-08T12:33:15;26.50;1.00
6443;DHT22;3254;47.372;8.512;2023-08-08T12:35:41;26.70;1.00
6443;DHT22;3254;47.372;8.512;2023-08-08T12:38:07;26.80;1.00
6443;DHT22;3254;47.372;8.512;2023-08-08T12:40:32;26.80;1.00
6443;DHT22;3254;47.372;8.512;2023-08-08T12:42:59;26.70;1.00
6443;DHT22;3254;47.372;8.512;2023-08-08T12:45:25;27.00;1.00
6443;DHT22;3254;47.372;8.512;2023-08-08T12:47:50;27.20;1.00
6443;DHT22;3254;47.372;8.512;2023-08-08T12:50:16;27.10;1.00
6443;DHT22;3254;47.372;8.512;2023-08-08T12:52:42;26.90;1.00
6443;DHT22;3254;47.372;8.512;2023-08-08T12:55:09;27.20;1.00
6443;DHT22;3254;47.372;8.512;2023-08-08T12:57:37;27.30;1.00
6443;DHT22;3254;47.372;8.512;2023-08-08T13:00:04;26.80;1.00
6443;DHT22;3254;47.372;8.512;2023-08-08T13:02:32;26.60;1.00
6443;DHT22;3254;47.372;8.512;2023-08-08T13:04:58;27.20;1.00
6443;DHT22;3254;47.372;8.512;2023-08-08T13:07:23;27.90;1.00
6443;DHT22;3254;47.372;8.512;2023-08-08T13:09:51;28.30;1.00
6443;DHT22;3254;47.372;8.512;2023-08-08T13:12:16;28.50;1.00
6443;DHT22;3254;47.372;8.512;2023-08-08T13:14:42;28.80;1.00
6443;DHT22;3254;47.372;8.512;2023-08-08T13:17:07;29.10;1.00
6443;DHT22;3254;47.372;8.512;2023-08-08T13:19:34;30.20;1.00
6443;DHT22;3254;47.372;8.512;2023-08-08T13:22:00;29.60;1.00
6443;DHT22;3254;47.372;8.512;2023-08-08T13:24:26;29.40;1.00
6443;DHT22;3254;47.372;8.512;2023-08-08T13:26:52;29.30;1.00
6443;DHT22;3254;47.372;8.512;2023-08-08T13:29:18;29.10;1.00
6443;DHT22;3254;47.372;8.512;2023-08-08T13:31:43;28.70;1.00
6443;DHT22;3254;47.372;8.512;2023-08-08T13:34:10;28.30;1.00
6443;DHT22;3254;47.372;8.512;2023-08-08T13:36:36;28.80;1.00
6443;DHT22;3254;47.372;8.512;2023-08-08T13:39:02;29.00;1.00
6443;DHT22;3254;47.372;8.512;2023-08-08T13:41:28;29.10;1.00
6443;DHT22;3254;47.372;8.512;2023-08-08T13:43:55;28.50;1.00
6443;DHT22;3254;47.372;8.512;2023-08-08T13:46:22;28.20;1.00
6443;DHT22;3254;47.372;8.512;2023-08-08T13:48:48;28.20;1.00
6443;DHT22;3254;47.372;8.512;2023-08-08T13:51:14;28.60;1.00
6443;DHT22;3254;47.372;8.512;2023-08-08T13:53:39;28.70;1.00
6443;DHT22;3254;47.372;8.512;2023-08-08T13:56:05;28.40;1.00
6443;DHT22;3254;47.372;8.512;2023-08-08T13:58:32;28.80;1.00
6443;DHT22;3254;47.372;8.512;2023-08-08T14:00:58;30.20;1.00
6443;DHT22;3254;47.372;8.512;2023-08-08T14:03:24;32.00;1.00
6443;DHT22;3254;47.372;8.512;2023-08-08T14:05:51;33.80;1.00
6443;DHT22;3254;47.372;8.512;2023-08-08T14:08:19;33.90;1.00
6443;DHT22;3254;47.372;8.512;2023-08-08T14:10:46;32.00;1.00
6443;DHT22;3254;47.372;8.512;2023-08-08T14:13:12;30.70;1.00
6443;DHT22;3254;47.372;8.512;2023-08-08T14:15:39;29.90;1.00
6443;DHT22;3254;47.372;8.512;2023-08-08T14:18:06;30.80;1.00
6443;DHT22;3254;47.372;8.512;2023-08-08T14:20:33;31.20;1.00
6443;DHT22;3254;47.372;8.512;2023-08-08T14:22:59;31.50;1.00
6443;DHT22;3254;47.372;8.512;2023-08-08T14:25:26;31.20;1.00
6443;DHT22;3254;47.372;8.512;2023-08-08T14:27:51;30.30;1.00
6443;DHT22;3254;47.372;8.512;2023-08-08T14:30:17;30.20;1.00
6443;DHT22;3254;47.372;8.512;2023-08-08T14:32:43;30.70;1.00
6443;DHT22;3254;47.372;8.512;2023-08-08T14:35:09;30.20;1.00
6443;DHT22;3254;47.372;8.512;2023-08-08T14:37:36;29.70;1.00
6443;DHT22;3254;47.372;8.512;2023-08-08T14:40:02;29.60;1.00
6443;DHT22;3254;47.372;8.512;2023-08-08T14:42:28;29.60;1.00
6443;DHT22;3254;47.372;8.512;2023-08-08T14:44:54;29.30;1.00
6443;DHT22;3254;47.372;8.512;2023-08-08T14:47:20;28.60;1.00
6443;DHT22;3254;47.372;8.512;2023-08-08T14:49:47;28.30;1.00
6443;DHT22;3254;47.372;8.512;2023-08-08T14:52:15;28.30;1.00
6443;DHT22;3254;47.372;8.512;2023-08-08T14:54:42;28.30;1.00
6443;DHT22;3254;47.372;8.512;2023-08-08T14:57:08;28.60;1.00
6443;DHT22;3254;47.372;8.512;2023-08-08T14:59:34;28.80;1.00
6443;DHT22;3254;47.372;8.512;2023-08-08T15:01:59;28.10;1.00
6443;DHT22;3254;47.372;8.512;2023-08-08T15:04:26;28.30;1.00
6443;DHT22;3254;47.372;8.512;2023-08-08T15:06:52;28.20;1.00
6443;DHT22;3254;47.372;8.512;2023-08-08T15:09:19;28.90;1.00
6443;DHT22;3254;47.372;8.512;2023-08-08T15:11:46;29.50;1.00
6443;DHT22;3254;47.372;8.512;2023-08-08T15:14:13;30.00;1.00
6443;DHT22;3254;47.372;8.512;2023-08-08T15:16:38;31.00;1.00
6443;DHT22;3254;47.372;8.512;2023-08-08T15:19:04;31.30;1.00
6443;DHT22;3254;47.372;8.512;2023-08-08T15:21:31;31.50;1.00
6443;DHT22;3254;47.372;8.512;2023-08-08T15:23:57;30.40;1.00
6443;DHT22;3254;47.372;8.512;2023-08-08T15:26:24;30.50;1.00
6443;DHT22;3254;47.372;8.512;2023-08-08T15:28:51;31.60;1.00
6443;DHT22;3254;47.372;8.512;2023-08-08T15:31:16;32.60;1.00
6443;DHT22;3254;47.372;8.512;2023-08-08T15:33:43;33.40;1.00
6443;DHT22;3254;47.372;8.512;2023-08-08T15:36:10;32.70;1.00
6443;DHT22;3254;47.372;8.512;2023-08-08T15:38:36;32.70;1.00
6443;DHT22;3254;47.372;8.512;2023-08-08T15:41:01;33.40;1.00
6443;DHT22;3254;47.372;8.512;2023-08-08T15:43:27;32.50;1.00
6443;DHT22;3254;47.372;8.512;2023-08-08T15:45:53;30.50;1.00
6443;DHT22;3254;47.372;8.512;2023-08-08T15:48:20;30.60;1.00
6443;DHT22;3254;47.372;8.512;2023-08-08T15:50:46;31.60;1.00
6443;DHT22;3254;47.372;8.512;2023-08-08T15:53:11;32.00;1.00
6443;DHT22;3254;47.372;8.512;2023-08-08T15:55:38;33.00;1.00
6443;DHT22;3254;47.372;8.512;2023-08-08T15:58:04;33.30;1.00
6443;DHT22;3254;47.372;8.512;2023-08-08T16:00:30;33.50;1.00
6443;DHT22;3254;47.372;8.512;2023-08-08T16:02:56;33.00;1.00
6443;DHT22;3254;47.372;8.512;2023-08-08T16:05:23;32.30;1.00
6443;DHT22;3254;47.372;8.512;2023-08-08T16:07:49;32.80;1.00
6443;DHT22;3254;47.372;8.512;2023-08-08T16:10:14;32.80;1.00
6443;DHT22;3254;47.372;8.512;2023-08-08T16:12:40;32.90;1.00
6443;DHT22;3254;47.372;8.512;2023-08-08T16:15:06;31.80;1.00